createdAt,value
2023-01-20T00:01:46.772Z,48.57
2023-01-20T00:04:15.429Z,54.80
2023-01-20T00:06:42.871Z,48.63
2023-01-20T00:09:16.419Z,52.10
2023-01-20T00:11:44.654Z,47.07
2023-01-20T00:14:11.772Z,48.93
2023-01-20T00:16:40.256Z,43.03
2023-01-20T00:19:07.959Z,42.73
2023-01-20T00:21:35.206Z,44.40
2023-01-20T00:24:02.130Z,44.67
2023-01-20T00:26:29.113Z,45.13
2023-01-20T00:28:58.153Z,44.17
2023-01-20T00:31:27.954Z,41.93
2023-01-20T00:33:57.041Z,41.63
2023-01-20T00:36:25.961Z,46.80
2023-01-20T00:38:53.410Z,48.40
2023-01-20T00:41:20.966Z,49.80
2023-01-20T00:43:48.300Z,42.30
2023-01-20T00:46:16.186Z,41.53
2023-01-20T00:48:43.653Z,44.77
2023-01-20T00:51:11.398Z,46.67
2023-01-20T00:53:38.252Z,45.80
2023-01-20T00:56:06.184Z,44.10
2023-01-20T00:58:33.547Z,45.17
2023-01-20T01:01:01.115Z,49.40
2023-01-20T01:03:28.328Z,43.47
2023-01-20T01:05:55.346Z,45.30
2023-01-20T01:08:25.203Z,40.43
2023-01-20T01:10:56.567Z,43.70
2023-01-20T01:13:23.398Z,45.20
2023-01-20T01:15:50.688Z,44.97
2023-01-20T01:18:17.790Z,42.70
2023-01-20T01:20:45.165Z,42.33
2023-01-20T01:23:12.853Z,49.23
2023-01-20T01:25:40.146Z,44.97
2023-01-20T01:28:07.433Z,45.20
2023-01-20T01:30:34.404Z,43.13
2023-01-20T01:33:01.418Z,40.80
2023-01-20T01:35:28.479Z,44.17
2023-01-20T01:37:55.333Z,47.33
2023-01-20T01:40:22.247Z,42.17
2023-01-20T01:42:49.123Z,40.03
2023-01-20T01:45:24.243Z,39.50
2023-01-20T01:47:56.933Z,39.77
2023-01-20T01:50:33.207Z,40.53
2023-01-20T01:53:00.889Z,40.93
2023-01-20T01:55:31.618Z,41.23
2023-01-20T01:58:01.456Z,39.80
2023-01-20T02:00:28.543Z,41.20
2023-01-20T02:02:57.417Z,43.07
2023-01-20T02:05:27.189Z,39.60
2023-01-20T02:07:55.607Z,43.37
2023-01-20T02:10:22.537Z,42.93
2023-01-20T02:12:51.847Z,42.60
2023-01-20T02:15:26.177Z,40.53
2023-01-20T02:18:01.737Z,44.77
2023-01-20T02:20:47.434Z,45.27
2023-01-20T02:23:41.469Z,42.87
2023-01-20T02:26:14.447Z,45.40
2023-01-20T02:29:13.289Z,40.03
2023-01-20T02:31:58.906Z,45.90
2023-01-20T02:34:36.858Z,42.47
2023-01-20T02:37:15.597Z,44.23
2023-01-20T02:40:10.395Z,44.23
2023-01-20T02:42:42.744Z,45.70
2023-01-20T02:45:24.321Z,47.03
2023-01-20T02:48:22.339Z,42.03
2023-01-20T02:51:09.294Z,44.50
2023-01-20T02:53:48.232Z,45.40
2023-01-20T02:56:16.893Z,47.43
2023-01-20T02:59:09.937Z,42.40
2023-01-20T03:01:48.681Z,43.37
2023-01-20T03:04:19.349Z,45.97
2023-01-20T03:06:52.309Z,49.53
2023-01-20T03:09:24.143Z,49.63
2023-01-20T03:12:01.835Z,41.73
2023-01-20T03:14:28.857Z,48.67
2023-01-20T03:16:56.568Z,49.53
2023-01-20T03:19:24.055Z,48.53
2023-01-20T03:21:51.506Z,48.43
2023-01-20T03:24:18.524Z,45.67
2023-01-20T03:26:45.477Z,47.03
2023-01-20T03:29:13.153Z,49.27
2023-01-20T03:31:45.005Z,46.50
2023-01-20T03:34:15.850Z,48.43
2023-01-20T03:36:44.719Z,50.83
2023-01-20T03:39:15.741Z,48.03
2023-01-20T03:42:03.848Z,45.50
2023-01-20T03:44:36.522Z,44.30
2023-01-20T03:47:06.506Z,48.57
2023-01-20T03:49:55.047Z,44.63
2023-01-20T03:52:47.703Z,40.87
2023-01-20T03:55:41.151Z,51.63
2023-01-20T03:58:23.815Z,44.60
2023-01-20T04:00:51.953Z,40.33
2023-01-20T04:03:29.960Z,44.13
2023-01-20T04:06:00.151Z,45.57
2023-01-20T04:08:33.741Z,43.30
2023-01-20T04:11:04.440Z,42.00
2023-01-20T04:13:31.522Z,38.23
2023-01-20T04:16:01.312Z,40.87
2023-01-20T04:18:28.186Z,42.67
2023-01-20T04:21:03.050Z,42.97
2023-01-20T04:23:35.950Z,43.50
2023-01-20T04:26:03.614Z,43.10
2023-01-20T04:28:30.511Z,44.70
2023-01-20T04:30:57.738Z,41.37
2023-01-20T04:33:24.975Z,47.03
2023-01-20T04:35:52.110Z,44.30
2023-01-20T04:38:19.090Z,44.97
2023-01-20T04:40:46.415Z,39.77
2023-01-20T04:43:13.804Z,37.73
2023-01-20T04:45:41.726Z,40.57
2023-01-20T04:48:09.405Z,41.97
2023-01-20T04:50:40.860Z,42.43
2023-01-20T04:53:13.672Z,45.90
2023-01-20T04:55:40.808Z,41.17
2023-01-20T04:58:09.549Z,38.20
2023-01-20T05:00:39.615Z,43.47
2023-01-20T05:03:06.937Z,42.37
2023-01-20T05:05:34.087Z,43.53
2023-01-20T05:08:01.854Z,40.77
2023-01-20T05:10:28.714Z,47.60
2023-01-20T05:12:55.942Z,44.60
2023-01-20T05:15:22.874Z,44.17
2023-01-20T05:17:50.109Z,44.60
2023-01-20T05:20:19.142Z,41.70
2023-01-20T05:22:46.992Z,40.43
2023-01-20T05:25:14.386Z,39.60
2023-01-20T05:27:41.942Z,44.13
2023-01-20T05:30:09.603Z,40.73
2023-01-20T05:32:36.609Z,37.67
2023-01-20T05:35:05.190Z,39.10
2023-01-20T05:37:32.037Z,40.40
2023-01-20T05:39:58.878Z,36.17
2023-01-20T05:42:25.669Z,38.83
2023-01-20T05:44:52.730Z,38.50
2023-01-20T05:47:19.530Z,29.17
2023-01-20T05:49:46.591Z,40.43
2023-01-20T05:52:13.387Z,41.27
2023-01-20T05:54:40.830Z,39.73
2023-01-20T05:57:08.170Z,36.97
2023-01-20T05:59:35.124Z,38.93
2023-01-20T06:02:05.360Z,33.03
2023-01-20T06:04:32.329Z,34.43
2023-01-20T06:06:59.499Z,35.93
2023-01-20T06:09:26.540Z,38.53
2023-01-20T06:11:53.472Z,37.13
2023-01-20T06:14:21.068Z,42.07
2023-01-20T06:16:48.044Z,38.23
2023-01-20T06:19:15.110Z,39.10
2023-01-20T06:21:42.005Z,41.83
2023-01-20T06:24:11.925Z,38.80
2023-01-20T06:26:39.128Z,39.03
2023-01-20T06:29:06.469Z,42.00
2023-01-20T06:31:33.665Z,42.03
2023-01-20T06:34:00.630Z,45.67
2023-01-20T06:36:28.374Z,43.50
2023-01-20T06:38:55.217Z,40.13
2023-01-20T06:41:22.063Z,40.03
2023-01-20T06:43:50.167Z,43.73
2023-01-20T06:46:17.345Z,40.30
2023-01-20T06:48:45.197Z,41.73
2023-01-20T06:51:20.431Z,43.30
2023-01-20T06:53:48.199Z,43.20
2023-01-20T06:56:16.600Z,42.60
2023-01-20T06:58:43.715Z,43.63
2023-01-20T07:01:23.713Z,42.40
2023-01-20T07:03:51.004Z,42.07
2023-01-20T07:06:29.407Z,43.70
2023-01-20T07:08:58.796Z,40.60
2023-01-20T07:11:26.255Z,44.23
2023-01-20T07:13:53.598Z,44.47
2023-01-20T07:16:20.597Z,47.93
2023-01-20T07:18:49.426Z,45.47
2023-01-20T07:21:17.030Z,45.13
2023-01-20T07:23:43.957Z,45.83
2023-01-20T07:26:13.791Z,46.80
2023-01-20T07:28:41.202Z,46.37
2023-01-20T07:31:13.683Z,43.63
2023-01-20T07:33:40.821Z,42.17
2023-01-20T07:36:12.436Z,42.93
2023-01-20T07:38:39.796Z,41.03
2023-01-20T07:41:16.393Z,41.50
2023-01-20T07:43:44.243Z,40.97
2023-01-20T07:46:15.790Z,42.80
2023-01-20T07:48:42.660Z,39.17
2023-01-20T07:51:11.610Z,44.37
2023-01-20T07:53:41.048Z,42.33
2023-01-20T07:56:15.926Z,38.87
2023-01-20T07:58:45.211Z,40.47
2023-01-20T08:01:16.714Z,39.87
2023-01-20T08:03:44.617Z,42.37
2023-01-20T08:06:14.023Z,43.90
2023-01-20T08:08:41.473Z,41.60
2023-01-20T08:11:09.731Z,40.60
2023-01-20T08:13:36.924Z,39.33
2023-01-20T08:16:06.023Z,40.63
2023-01-20T08:18:35.265Z,37.50
2023-01-20T08:21:06.543Z,42.00
2023-01-20T08:23:34.397Z,39.70
2023-01-20T08:26:03.868Z,40.90
2023-01-20T08:28:31.970Z,38.37
2023-01-20T08:31:17.771Z,40.73
2023-01-20T08:33:46.072Z,36.53
2023-01-20T08:36:17.014Z,39.37
2023-01-20T08:38:44.807Z,42.87
2023-01-20T08:41:21.252Z,43.40
2023-01-20T08:43:48.911Z,39.90
2023-01-20T08:46:18.508Z,40.57
2023-01-20T08:48:46.199Z,38.50
2023-01-20T08:51:21.237Z,37.93
2023-01-20T08:53:49.108Z,40.83
2023-01-20T08:56:16.863Z,40.80
2023-01-20T08:58:44.963Z,35.07
2023-01-20T09:01:17.347Z,38.20
2023-01-20T09:03:59.024Z,38.37
2023-01-20T09:06:32.332Z,37.80
2023-01-20T09:08:59.300Z,38.90
2023-01-20T09:11:26.405Z,36.57
2023-01-20T09:13:54.238Z,34.87
2023-01-20T09:16:21.141Z,35.47
2023-01-20T09:18:48.445Z,33.60
2023-01-20T09:21:15.500Z,33.77
2023-01-20T09:23:48.402Z,34.90
2023-01-20T09:26:22.823Z,35.40
2023-01-20T09:29:09.982Z,30.97
2023-01-20T09:31:46.304Z,31.57
2023-01-20T09:34:19.815Z,31.77
2023-01-20T09:36:50.574Z,29.03
2023-01-20T09:39:36.196Z,31.47
2023-01-20T09:42:31.203Z,32.20
2023-01-20T09:45:32.627Z,31.43
2023-01-20T09:48:47.447Z,24.93
2023-01-20T09:51:45.342Z,28.87
2023-01-20T09:54:25.193Z,30.23
2023-01-20T09:56:54.815Z,27.87
2023-01-20T09:59:35.747Z,28.97
2023-01-20T10:02:11.654Z,28.53
2023-01-20T10:04:50.772Z,33.13
2023-01-20T10:07:42.577Z,26.70
2023-01-20T10:10:17.409Z,29.77
2023-01-20T10:12:47.958Z,26.57
2023-01-20T10:15:19.718Z,29.67
2023-01-20T10:17:52.082Z,26.43
2023-01-20T10:20:41.476Z,27.43
2023-01-20T10:23:16.907Z,27.43
2023-01-20T10:26:09.920Z,25.43
2023-01-20T10:28:41.865Z,29.33
2023-01-20T10:31:09.936Z,29.57
2023-01-20T10:33:45.317Z,26.33
2023-01-20T10:36:31.501Z,25.67
2023-01-20T10:39:04.491Z,25.70
2023-01-20T10:41:31.263Z,21.80
2023-01-20T10:44:00.145Z,24.50
2023-01-20T10:46:33.047Z,22.10
2023-01-20T10:49:21.322Z,27.23
2023-01-20T10:52:28.789Z,23.17
2023-01-20T10:55:20.565Z,22.87
2023-01-20T10:57:56.157Z,22.47
2023-01-20T11:00:26.903Z,20.10
2023-01-20T11:02:56.997Z,22.90
2023-01-20T11:05:30.263Z,20.30
2023-01-20T11:08:00.315Z,19.37
2023-01-20T11:10:32.706Z,18.47
2023-01-20T11:13:02.422Z,20.30
2023-01-20T11:15:33.182Z,18.27
2023-01-20T11:18:15.416Z,21.33
2023-01-20T11:21:04.311Z,21.43
2023-01-20T11:23:34.431Z,19.03
2023-01-20T11:26:11.688Z,18.77
2023-01-20T11:28:49.452Z,19.20
2023-01-20T11:31:17.376Z,17.23
2023-01-20T11:34:01.853Z,18.20
2023-01-20T11:36:29.627Z,19.60
2023-01-20T11:38:57.494Z,18.83
2023-01-20T11:41:29.711Z,16.67
2023-01-20T11:44:00.855Z,20.77
2023-01-20T11:46:32.251Z,17.17
2023-01-20T11:49:22.623Z,18.37
2023-01-20T11:51:49.472Z,15.23
2023-01-20T11:54:22.989Z,20.47
2023-01-20T11:56:57.571Z,18.17
2023-01-20T11:59:31.664Z,16.93
2023-01-20T12:02:02.827Z,17.50
2023-01-20T12:04:58.863Z,16.43
2023-01-20T12:07:39.321Z,20.37
2023-01-20T12:10:32.657Z,18.53
2023-01-20T12:13:12.396Z,18.63
2023-01-20T12:15:44.576Z,16.77
2023-01-20T12:19:02.835Z,16.93
2023-01-20T12:21:46.039Z,15.67
2023-01-20T12:25:06.779Z,16.90
2023-01-20T12:27:35.873Z,15.67
2023-01-20T12:30:10.951Z,12.73
2023-01-20T12:32:40.314Z,10.67
2023-01-20T12:35:14.604Z,13.07
2023-01-20T12:38:05.721Z,9.30
2023-01-20T12:40:45.087Z,12.10
2023-01-20T12:43:24.539Z,11.13
2023-01-20T12:46:09.530Z,11.67
2023-01-20T12:48:48.233Z,11.37
2023-01-20T12:51:35.140Z,10.50
2023-01-20T12:54:18.407Z,11.83
2023-01-20T12:57:06.527Z,16.00
2023-01-20T12:59:48.835Z,14.83
2023-01-20T13:02:54.311Z,12.27
2023-01-20T13:05:55.973Z,10.37
2023-01-20T13:08:45.803Z,10.83
2023-01-20T13:11:26.935Z,12.57
2023-01-20T13:14:14.510Z,12.00
2023-01-20T13:16:50.610Z,12.23
2023-01-20T13:19:37.942Z,14.67
2023-01-20T13:22:23.083Z,14.37
2023-01-20T13:24:55.717Z,14.63
2023-01-20T13:27:28.133Z,16.90
2023-01-20T13:30:00.144Z,16.30
2023-01-20T13:32:48.494Z,11.93
2023-01-20T13:35:18.120Z,12.27
2023-01-20T13:37:56.731Z,11.57
2023-01-20T13:40:39.159Z,14.20
2023-01-20T13:43:29.378Z,12.77
2023-01-20T13:46:05.824Z,13.53
2023-01-20T13:48:34.493Z,11.53
2023-01-20T13:51:17.019Z,13.93
2023-01-20T13:53:44.383Z,11.73
2023-01-20T13:56:26.474Z,14.23
2023-01-20T13:58:55.040Z,12.20
2023-01-20T14:01:22.687Z,13.90
2023-01-20T14:04:16.519Z,11.83
2023-01-20T14:06:52.545Z,13.17
2023-01-20T14:09:24.388Z,13.73
2023-01-20T14:11:54.123Z,12.23
2023-01-20T14:14:26.025Z,10.70
2023-01-20T14:16:53.682Z,8.67
2023-01-20T14:19:33.338Z,8.87
2023-01-20T14:22:03.344Z,10.60
2023-01-20T14:24:36.028Z,9.73
2023-01-20T14:27:20.941Z,9.80
2023-01-20T14:29:50.307Z,12.57
2023-01-20T14:32:28.298Z,12.97
2023-01-20T14:34:56.970Z,12.77
2023-01-20T14:37:28.087Z,10.50
2023-01-20T14:39:59.305Z,9.87
2023-01-20T14:42:27.897Z,11.17
2023-01-20T14:44:57.136Z,9.93
2023-01-20T14:47:26.803Z,9.50
2023-01-20T14:49:54.629Z,12.03
2023-01-20T14:52:24.709Z,11.30
2023-01-20T14:54:51.792Z,7.67
2023-01-20T14:57:31.761Z,16.00
2023-01-20T15:00:15.417Z,13.33
2023-01-20T15:03:09.478Z,10.17
2023-01-20T15:05:40.479Z,10.20
2023-01-20T15:08:26.732Z,8.53
2023-01-20T15:11:16.467Z,10.23
2023-01-20T15:14:05.354Z,9.93
2023-01-20T15:16:41.930Z,14.50
2023-01-20T15:19:18.518Z,17.27
2023-01-20T15:21:51.385Z,12.07
2023-01-20T15:24:22.651Z,14.33
2023-01-20T15:26:52.551Z,14.00
2023-01-20T15:29:34.004Z,13.73
2023-01-20T15:32:09.154Z,15.70
2023-01-20T15:34:36.882Z,20.23
2023-01-20T15:37:15.806Z,16.00
2023-01-20T15:39:42.818Z,15.50
2023-01-20T15:42:15.309Z,14.50
2023-01-20T15:44:42.098Z,17.00
2023-01-20T15:47:27.115Z,15.93
2023-01-20T15:49:54.307Z,18.30
2023-01-20T15:52:21.051Z,16.53
2023-01-20T15:54:48.096Z,18.20
2023-01-20T15:57:16.883Z,17.73
2023-01-20T15:59:47.638Z,13.67
2023-01-20T16:02:21.390Z,18.30
2023-01-20T16:04:48.753Z,19.90
2023-01-20T16:07:18.119Z,18.10
2023-01-20T16:09:46.790Z,19.13
2023-01-20T16:12:18.487Z,18.30
2023-01-20T16:14:45.848Z,19.13
2023-01-20T16:17:15.119Z,19.73
2023-01-20T16:19:42.076Z,20.57
2023-01-20T16:22:10.497Z,22.47
2023-01-20T16:24:38.215Z,20.33
2023-01-20T16:27:19.401Z,24.23
2023-01-20T16:29:46.831Z,22.57
2023-01-20T16:32:16.680Z,28.83
2023-01-20T16:34:44.823Z,27.77
2023-01-20T16:37:14.580Z,26.30
2023-01-20T16:39:41.657Z,24.30
2023-01-20T16:42:14.161Z,20.47
2023-01-20T16:44:41.840Z,25.03
2023-01-20T16:47:08.722Z,22.67
2023-01-20T16:49:35.758Z,22.50
2023-01-20T16:52:02.916Z,22.07
2023-01-20T16:54:29.765Z,25.73
2023-01-20T16:56:56.575Z,23.07
2023-01-20T16:59:23.352Z,22.73
2023-01-20T17:01:50.355Z,21.47
2023-01-20T17:04:17.449Z,21.13
2023-01-20T17:06:44.393Z,21.87
2023-01-20T17:09:11.884Z,25.57
2023-01-20T17:11:40.895Z,26.57
2023-01-20T17:14:10.482Z,25.80
2023-01-20T17:16:38.588Z,22.10
2023-01-20T17:19:05.937Z,24.93
2023-01-20T17:21:37.147Z,23.97
2023-01-20T17:24:05.229Z,22.53
2023-01-20T17:26:32.578Z,21.30
2023-01-20T17:29:02.612Z,26.47
2023-01-20T17:31:33.338Z,30.30
2023-01-20T17:34:00.455Z,27.77
2023-01-20T17:36:27.627Z,29.73
2023-01-20T17:38:54.657Z,24.53
2023-01-20T17:41:21.431Z,28.20
2023-01-20T17:43:48.299Z,31.73
2023-01-20T17:46:18.251Z,24.83
2023-01-20T17:48:46.435Z,24.13
2023-01-20T17:51:16.398Z,28.67
2023-01-20T17:53:44.395Z,29.33
2023-01-20T17:56:13.609Z,25.37
2023-01-20T17:58:42.485Z,26.03
2023-01-20T18:01:10.503Z,27.30
2023-01-20T18:03:39.999Z,26.67
2023-01-20T18:06:09.324Z,29.90
2023-01-20T18:08:38.882Z,27.60
2023-01-20T18:11:10.648Z,30.83
2023-01-20T18:13:37.543Z,27.23
2023-01-20T18:16:08.925Z,32.13
2023-01-20T18:18:35.760Z,27.30
2023-01-20T18:21:33.310Z,32.17
2023-01-20T18:24:00.998Z,30.33
2023-01-20T18:26:31.368Z,33.33
2023-01-20T18:29:02.791Z,38.37
2023-01-20T18:31:34.236Z,36.13
2023-01-20T18:34:04.373Z,34.03
2023-01-20T18:36:37.171Z,33.70
2023-01-20T18:39:12.489Z,37.03
2023-01-20T18:41:40.149Z,33.03
2023-01-20T18:44:07.780Z,35.87
2023-01-20T18:46:34.922Z,34.73
2023-01-20T18:49:02.232Z,33.53
2023-01-20T18:51:30.558Z,32.90
2023-01-20T18:54:04.546Z,33.90
2023-01-20T18:56:33.387Z,35.07
2023-01-20T18:59:01.602Z,35.63
2023-01-20T19:01:33.725Z,35.77
2023-01-20T19:04:02.184Z,36.03
2023-01-20T19:06:31.316Z,38.60
2023-01-20T19:08:59.352Z,36.47
2023-01-20T19:11:28.822Z,35.50
2023-01-20T19:13:56.322Z,39.73
2023-01-20T19:16:34.466Z,39.30
2023-01-20T19:19:05.283Z,36.80
2023-01-20T19:21:33.212Z,36.27
2023-01-20T19:24:05.917Z,39.07
2023-01-20T19:26:35.699Z,37.50
2023-01-20T19:29:08.133Z,41.97
2023-01-20T19:31:38.783Z,39.97
2023-01-20T19:34:07.582Z,40.47
2023-01-20T19:36:34.796Z,41.17
2023-01-20T19:39:01.718Z,40.17
2023-01-20T19:41:34.613Z,41.23
2023-01-20T19:44:03.230Z,44.43
2023-01-20T19:46:33.065Z,43.23
2023-01-20T19:49:01.488Z,43.60
2023-01-20T19:51:29.640Z,43.73
2023-01-20T19:53:58.490Z,45.50
2023-01-20T19:56:27.732Z,42.43
2023-01-20T19:58:55.324Z,47.57
2023-01-20T20:01:31.525Z,44.03
2023-01-20T20:03:59.104Z,42.63
2023-01-20T20:06:31.274Z,43.73
2023-01-20T20:09:12.773Z,46.53
2023-01-20T20:11:40.166Z,42.33
2023-01-20T20:14:09.201Z,44.67
2023-01-20T20:16:38.008Z,45.13
2023-01-20T20:19:06.582Z,44.37
2023-01-20T20:21:34.743Z,45.77
2023-01-20T20:24:02.722Z,47.80
2023-01-20T20:26:32.218Z,45.73
2023-01-20T20:29:00.754Z,45.03
2023-01-20T20:31:31.517Z,48.80
2023-01-20T20:33:59.209Z,49.90
2023-01-20T20:36:31.065Z,44.40
2023-01-20T20:38:59.743Z,48.50
2023-01-20T20:41:29.327Z,47.20
2023-01-20T20:43:57.514Z,48.30
2023-01-20T20:46:24.847Z,46.30
2023-01-20T20:48:56.565Z,47.80
2023-01-20T20:51:24.199Z,51.47
2023-01-20T20:53:55.299Z,50.07
2023-01-20T20:56:23.255Z,52.50
2023-01-20T20:59:00.927Z,48.77
2023-01-20T21:01:32.388Z,51.27
2023-01-20T21:04:00.608Z,49.97
2023-01-20T21:06:28.507Z,51.40
2023-01-20T21:08:55.680Z,54.43
2023-01-20T21:11:24.182Z,49.30
2023-01-20T21:13:52.308Z,50.13
2023-01-20T21:16:22.232Z,52.43
2023-01-20T21:18:50.811Z,51.97
2023-01-20T21:21:19.311Z,56.13
2023-01-20T21:23:50.935Z,52.33
2023-01-20T21:26:18.765Z,52.73
2023-01-20T21:28:49.140Z,58.73
2023-01-20T21:31:20.981Z,50.83
2023-01-20T21:33:53.601Z,55.70
2023-01-20T21:36:21.265Z,54.83
2023-01-20T21:38:48.283Z,52.57
2023-01-20T21:41:16.730Z,50.13
2023-01-20T21:44:04.491Z,47.60
2023-01-20T21:46:37.194Z,52.87
2023-01-20T21:49:24.084Z,49.60
2023-01-20T21:52:09.390Z,50.93
2023-01-20T21:54:36.557Z,48.73
2023-01-20T21:57:03.503Z,53.93
2023-01-20T21:59:30.459Z,54.20
2023-01-20T22:01:57.971Z,54.43
2023-01-20T22:04:24.892Z,52.27
2023-01-20T22:06:52.062Z,57.50
2023-01-20T22:09:18.848Z,51.70
2023-01-20T22:11:45.708Z,50.93
2023-01-20T22:14:12.817Z,51.87
2023-01-20T22:16:39.798Z,50.93
2023-01-20T22:19:07.045Z,51.27
2023-01-20T22:21:34.003Z,53.90
2023-01-20T22:24:02.876Z,50.63
2023-01-20T22:26:30.001Z,54.60
2023-01-20T22:28:57.588Z,52.70
2023-01-20T22:31:25.210Z,57.60
2023-01-20T22:33:56.853Z,50.37
2023-01-20T22:36:24.824Z,56.17
2023-01-20T22:38:53.006Z,52.73
2023-01-20T22:41:20.758Z,55.80
2023-01-20T22:43:48.314Z,50.70
2023-01-20T22:46:17.022Z,53.93
2023-01-20T22:48:44.463Z,50.63
2023-01-20T22:51:13.963Z,61.53
2023-01-20T22:53:41.358Z,54.13
2023-01-20T22:56:15.957Z,56.60
2023-01-20T22:58:46.191Z,54.30
2023-01-20T23:01:21.985Z,77.80
2023-01-20T23:03:53.083Z,69.30
2023-01-20T23:06:20.104Z,80.50
2023-01-20T23:08:47.105Z,78.20
2023-01-20T23:11:15.970Z,75.57
2023-01-20T23:13:43.182Z,73.47
2023-01-20T23:16:16.573Z,62.53
2023-01-20T23:18:43.940Z,55.43
2023-01-20T23:21:10.995Z,59.93
2023-01-20T23:23:38.218Z,57.83
2023-01-20T23:26:15.357Z,58.40
2023-01-20T23:28:43.723Z,58.90
2023-01-20T23:31:12.486Z,57.53
2023-01-20T23:33:41.371Z,60.57
2023-01-20T23:36:16.445Z,57.20
2023-01-20T23:38:44.057Z,57.97
2023-01-20T23:41:12.146Z,54.50
2023-01-20T23:43:39.207Z,56.63
2023-01-20T23:46:06.784Z,52.50
2023-01-20T23:48:34.868Z,56.97
2023-01-20T23:51:02.180Z,60.93
2023-01-20T23:53:31.231Z,54.93
2023-01-20T23:56:05.690Z,54.97
2023-01-20T23:58:32.644Z,52.60
